首页
METAR-TAF:

METAR-TAF

机场 :

喀土穆国际机场

喀土穆, 苏丹共和国

纬度: 15-36N, 经度: 032-33E, 海拔: 382米

当前天气观测

该预报发布于43分钟前的10:00 UTC
风速7节,风向东转东北
温度 38°C
湿度 24%
气压 1009 hPa
能见度10公里或以上
少量云层高于5000英尺

METAR: HSSS 211000Z 06007KT 9999 FEW050 38/14 Q1009 NOSIG

时间: 13:43 (10:43 UTC)

预报

该预报发布于5小时和43分钟前的05:00 UTC
预报有效从21日的 06点(UTC)到 22日的 12点(UTC)
风速3节,风向多变
能见度10公里或以上
散云层高于14000英尺
短暂存在
从 21日的 11点(UTC)到 21日的 15点(UTC)
能见度10公里或以上
散云层高于4000英尺
散云层高于14000英尺
短暂存在
从 21日的 15点(UTC)到 21日的 21点(UTC)
能見度: 6000
少量云层高于4500英尺, 积雨云.
多云层高于14000英尺
雷暴, 雨

TAF: HSSS 210500Z 2106/2212 VRB03KT 9999 SCT140 TEMPO 2111/2115 9999 SCT040 SCT140 TEMPO 2115/2121 6000 TSRA FEW045CB BKN140

超过4000个机场的气象观测和天气预报(METAR&TAF报告)。

可查询的气象台以黄色和红色小点在地图上表示。

将鼠标移到小点上方,可查看气象台名称。

然后点击查看天气观测和预报。

如需切换地图:点击带黑十字的绿色按钮放大地图;点击带横线的绿色按钮缩小地图;或者点击绿色箭头查看邻近地区的地图。


METAR-TAF: